Time;durP1;ratioP1;P1;durP2;ratioP2;P2;SDS_P1;SDS_P2;PMS_P1;PMS_P2;Temp;Humidity;BMP_temperature;BMP_pressure;BME280_temperature;BME280_humidity;BME280_pressure;Samples;Min_cycle;Max_cycle;Signal;HPM_P1;HPM_P2
2021/07/31 00:01:10;;;;;;;;;3.20;3.20;;;;;30.37;59.29;98419.16;5054230;28;8935;-70
2021/07/31 00:03:39;;;;;;;;;5.40;5.40;;;;;30.36;59.79;98421.09;5054125;28;8827;-70
2021/07/31 00:06:28;;;;;;;;;3.60;3.60;;;;;30.34;59.53;98414.50;5054137;28;8842;-70
2021/07/31 00:08:56;;;;;;;;;3.00;3.00;;;;;30.33;59.63;98410.25;5054036;28;8920;-70
2021/07/31 00:11:25;;;;;;;;;3.25;3.25;;;;;30.37;59.60;98416.41;5054310;28;8842;-70
2021/07/31 00:13:54;;;;;;;;;4.75;4.75;;;;;30.43;59.26;98426.44;5054240;28;8916;-70
2021/07/31 00:16:23;;;;;;;;;4.00;3.50;;;;;30.42;59.25;98433.06;5053022;28;8868;-70
2021/07/31 00:18:52;;;;;;;;;2.80;2.80;;;;;30.45;59.49;98439.66;5053875;28;8831;-70
2021/07/31 00:21:22;;;;;;;;;1.75;1.75;;;;;30.39;59.47;98424.94;5053901;28;8904;-70
2021/07/31 00:23:50;;;;;;;;;2.60;2.60;;;;;30.34;59.17;98423.44;5053668;28;8907;-70
2021/07/31 00:26:20;;;;;;;;;3.60;3.60;;;;;30.40;59.39;98434.66;5053788;28;8846;-70
2021/07/31 00:28:48;;;;;;;;;3.80;3.80;;;;;30.50;59.39;98450.88;5053737;28;8826;-70
2021/07/31 00:31:17;;;;;;;;;4.60;4.60;;;;;30.51;58.82;98454.34;5053646;28;8839;-70
2021/07/31 00:33:46;;;;;;;;;2.40;2.40;;;;;30.45;59.31;98445.88;5053561;28;8873;-70
2021/07/31 00:36:14;;;;;;;;;2.80;2.80;;;;;30.50;59.08;98458.25;5054017;28;8850;-70
2021/07/31 00:38:42;;;;;;;;;3.40;3.40;;;;;30.48;58.99;98445.06;5053772;28;8842;-70
2021/07/31 00:41:11;;;;;;;;;4.00;4.00;;;;;30.56;59.07;98456.63;5053440;28;8846;-70
2021/07/31 00:43:39;;;;;;;;;2.80;2.80;;;;;30.55;58.98;98448.88;5053333;28;8853;-70
2021/07/31 00:46:10;;;;;;;;;3.00;3.00;;;;;30.61;59.32;98441.84;5052241;28;8842;-70
2021/07/31 00:48:39;;;;;;;;;3.00;3.00;;;;;30.63;59.15;98445.69;5053072;28;8855;-70
2021/07/31 00:51:08;;;;;;;;;4.40;4.40;;;;;30.65;58.69;98446.06;5053279;28;8957;-71
2021/07/31 00:53:37;;;;;;;;;3.00;3.00;;;;;30.66;59.07;98436.72;5053104;28;8957;-70
2021/07/31 00:56:06;;;;;;;;;2.80;2.80;;;;;30.71;58.76;98440.94;5053674;28;8858;-70
2021/07/31 00:58:35;;;;;;;;;4.00;4.00;;;;;30.74;58.79;98457.22;5053334;28;8849;-70
2021/07/31 01:01:04;;;;;;;;;4.00;4.00;;;;;30.77;58.93;98455.63;5053064;28;8916;-70
2021/07/31 01:03:32;;;;;;;;;2.40;2.40;;;;;30.81;58.72;98456.34;5053072;28;8839;-71
2021/07/31 01:06:01;;;;;;;;;3.60;3.60;;;;;30.85;58.87;98462.53;5052937;28;8916;-74
2021/07/31 01:08:30;;;;;;;;;3.80;3.80;;;;;30.83;58.41;98448.56;5052526;28;8838;-71
2021/07/31 01:10:59;;;;;;;;;2.80;2.80;;;;;30.91;58.30;98460.91;5052792;28;8834;-71
2021/07/31 01:13:29;;;;;;;;;3.00;3.00;;;;;30.82;58.28;98452.47;5052701;28;8847;-71
2021/07/31 01:16:08;;;;;;;;;2.00;2.00;;;;;31.05;58.47;98470.84;5050550;28;8927;-74
2021/07/31 01:18:37;;;;;;;;;2.60;2.60;;;;;31.04;57.91;98467.34;5051999;28;9584;-73
2021/07/31 01:21:06;;;;;;;;;2.40;2.40;;;;;31.11;58.01;98480.09;5051771;28;8870;-71
2021/07/31 01:23:35;;;;;;;;;3.60;3.60;;;;;31.13;57.89;98478.53;5052123;28;8853;-72
2021/07/31 01:26:04;;;;;;;;;3.00;3.00;;;;;31.13;57.67;98475.81;5052276;28;8834;-72
2021/07/31 01:28:32;;;;;;;;;2.00;2.00;;;;;31.18;57.73;98481.97;5051313;28;8924;-71
2021/07/31 01:31:01;;;;;;;;;2.60;2.60;;;;;31.13;57.63;98475.81;5052247;28;8831;-74
2021/07/31 01:33:29;;;;;;;;;3.80;3.80;;;;;31.20;57.55;98491.28;5050864;28;8906;-72
2021/07/31 01:35:58;;;;;;;;;2.80;2.80;;;;;31.16;57.71;98487.84;5050233;28;8928;-72
2021/07/31 01:38:27;;;;;;;;;4.20;4.20;;;;;31.10;57.36;98494.91;5051036;28;8850;-72
2021/07/31 01:40:55;;;;;;;;;2.20;2.20;;;;;31.02;57.48;98494.22;5051268;28;8928;-72
2021/07/31 01:43:24;;;;;;;;;3.80;3.80;;;;;30.95;57.54;98505.22;5031373;28;8849;-73
2021/07/31 01:45:52;;;;;;;;;2.80;2.80;;;;;30.89;57.41;98514.25;5030847;28;8857;-71
2021/07/31 01:48:21;;;;;;;;;3.00;3.00;;;;;30.85;58.02;98513.50;5031922;28;8914;-71
2021/07/31 01:50:50;;;;;;;;;2.80;2.80;;;;;30.83;58.03;98508.47;5032341;28;8849;-71
2021/07/31 01:53:21;;;;;;;;;2.60;2.60;;;;;30.56;57.59;98472.19;5040972;28;8851;-72
2021/07/31 01:55:49;;;;;;;;;3.20;3.20;;;;;30.82;57.75;98515.88;5051642;28;8843;-71
2021/07/31 01:58:18;;;;;;;;;3.00;3.00;;;;;30.79;57.36;98510.47;5044470;28;9076;-71
2021/07/31 02:00:46;;;;;;;;;2.60;2.60;;;;;30.81;57.44;98513.56;5052316;28;8956;-73
2021/07/31 02:03:15;;;;;;;;;2.60;2.60;;;;;30.82;57.66;98506.94;5056809;28;8865;-72
2021/07/31 02:05:44;;;;;;;;;3.00;3.00;;;;;30.61;57.43;98475.28;5051812;28;8847;-72
2021/07/31 02:08:13;;;;;;;;;2.80;2.80;;;;;30.79;57.52;98497.63;5050812;28;8843;-73
2021/07/31 02:10:41;;;;;;;;;2.00;2.00;;;;;30.75;57.51;98491.44;5050637;28;8869;-72
2021/07/31 02:13:10;;;;;;;;;4.75;4.00;;;;;30.66;57.25;98474.81;5049098;28;8942;-73
2021/07/31 02:15:41;;;;;;;;;3.00;3.00;;;;;30.74;57.26;98491.84;5051086;28;8846;-72
2021/07/31 02:18:11;;;;;;;;;4.00;4.00;;;;;30.80;57.50;98498.38;5049686;28;8819;-73
2021/07/31 02:20:39;;;;;;;;;2.60;2.60;;;;;30.80;57.70;98495.66;5050993;28;8833;-72
2021/07/31 02:23:08;;;;;;;;;2.80;2.80;;;;;30.81;57.11;98494.50;5051614;28;8835;-72
2021/07/31 02:25:36;;;;;;;;;3.20;3.20;;;;;30.82;57.21;98494.09;5049028;28;8839;-72
2021/07/31 02:28:05;;;;;;;;;3.00;3.00;;;;;30.80;57.58;98492.94;5050829;28;8904;-72
2021/07/31 02:30:34;;;;;;;;;1.80;1.80;;;;;30.84;56.97;98488.22;5050747;28;8838;-72
2021/07/31 02:33:02;;;;;;;;;2.60;2.60;;;;;30.69;57.12;98462.34;5050703;28;8834;-72
2021/07/31 02:35:36;;;;;;;;;3.00;3.00;;;;;30.92;57.27;98491.63;5047866;28;8838;-72
2021/07/31 02:38:05;;;;;;;;;3.00;3.00;;;;;30.91;57.16;98488.13;5050785;28;9669;-72
2021/07/31 02:40:34;;;;;;;;;2.80;2.80;;;;;30.98;56.88;98482.59;5053281;28;8842;-72
2021/07/31 02:43:02;;;;;;;;;2.40;2.40;;;;;30.95;56.92;98475.25;5053437;28;8866;-71
2021/07/31 02:45:31;;;;;;;;;1.60;1.60;;;;;31.04;56.40;98491.09;5052210;28;8884;-72
2021/07/31 02:48:02;;;;;;;;;2.40;2.40;;;;;31.09;56.49;98490.63;5052517;28;8900;-72
2021/07/31 02:50:32;;;;;;;;;2.00;2.00;;;;;31.10;56.21;98495.66;5052304;28;8892;-71
2021/07/31 02:53:01;;;;;;;;;2.40;2.40;;;;;31.06;56.05;98483.28;5053216;28;9566;-72
2021/07/31 02:55:31;;;;;;;;;3.00;1.40;;;;;30.98;56.09;98468.97;5052866;28;8854;-71
2021/07/31 02:58:00;;;;;;;;;3.60;2.20;;;;;31.19;56.50;98494.41;5054708;28;8912;-71
2021/07/31 03:00:28;;;;;;;;;3.20;3.20;;;;;31.23;56.22;98500.56;5046854;28;8819;-71
2021/07/31 03:02:57;;;;;;;;;1.40;1.40;;;;;31.31;56.01;98502.78;5054066;28;8858;-71
2021/07/31 03:05:26;;;;;;;;;1.80;1.80;;;;;31.34;55.67;98493.00;5054436;28;8850;-70
2021/07/31 03:07:55;;;;;;;;;2.00;2.00;;;;;31.51;55.29;98507.56;5054761;28;8831;-72
2021/07/31 03:10:23;;;;;;;;;2.60;2.60;;;;;31.44;54.39;98481.19;5054621;28;8909;-71
2021/07/31 03:12:52;;;;;;;;;2.40;2.40;;;;;31.60;55.33;98497.69;5054244;28;8839;-73
2021/07/31 03:15:20;;;;;;;;;2.00;2.00;;;;;31.69;55.18;98497.94;5054922;28;8850;-72
2021/07/31 03:17:49;;;;;;;;;2.00;2.00;;;;;31.75;53.86;98493.56;5054029;28;8842;-71
2021/07/31 03:20:18;;;;;;;;;1.80;1.80;;;;;31.84;54.39;98481.34;5054662;28;9548;-71
2021/07/31 03:22:46;;;;;;;;;1.40;1.40;;;;;31.93;54.63;98489.78;5054378;28;9695;-70
2021/07/31 03:25:15;;;;;;;;;1.60;1.60;;;;;31.99;53.67;98477.97;5054839;28;8932;-70
2021/07/31 03:27:44;;;;;;;;;2.20;2.20;;;;;32.06;53.11;98474.34;5054792;28;8865;-71
2021/07/31 03:30:12;;;;;;;;;1.00;1.00;;;;;32.07;54.55;98476.66;5054968;28;8851;-71
2021/07/31 03:32:41;;;;;;;;;1.40;1.40;;;;;32.14;54.03;98478.50;5054681;28;8859;-73
2021/07/31 03:35:10;;;;;;;;;3.20;1.80;;;;;32.12;53.72;98469.97;5053162;28;8936;-72
2021/07/31 03:37:38;;;;;;;;;1.80;1.80;;;;;32.18;53.23;98478.44;5054459;28;8846;-71
2021/07/31 03:40:08;;;;;;;;;2.20;2.20;;;;;32.21;54.24;98478.38;5052155;28;8858;-72
2021/07/31 03:42:36;;;;;;;;;2.80;2.80;;;;;32.17;53.06;98469.47;5050187;28;8866;-71
2021/07/31 03:45:05;;;;;;;;;1.60;1.60;;;;;32.27;53.88;98470.50;5049072;28;9637;-71
2021/07/31 03:47:34;;;;;;;;;2.60;2.60;;;;;32.31;53.51;98471.97;5051222;28;9571;-72
2021/07/31 03:50:03;;;;;;;;;2.40;2.40;;;;;32.37;54.15;98464.06;5049691;28;8877;-71
2021/07/31 03:52:32;;;;;;;;;3.00;3.00;;;;;32.44;54.10;98458.47;5048288;28;8854;-71
2021/07/31 03:55:00;;;;;;;;;1.60;1.60;;;;;32.46;53.28;98452.59;5051129;28;9505;-71
2021/07/31 03:57:29;;;;;;;;;2.20;2.20;;;;;32.53;53.24;98449.69;5049674;28;8916;-71
2021/07/31 03:59:58;;;;;;;;;1.80;1.80;;;;;32.65;53.03;98462.72;5048465;28;8842;-72
2021/07/31 04:02:27;;;;;;;;;1.40;1.40;;;;;32.67;53.71;98457.59;5050620;28;8858;-71
2021/07/31 04:04:56;;;;;;;;;0.00;0.00;;;;;32.78;52.33;98457.41;5050811;28;8881;-72
2021/07/31 04:07:25;;;;;;;;;2.00;2.00;;;;;32.85;52.79;98458.03;5048705;28;8858;-72
2021/07/31 04:09:54;;;;;;;;;2.20;1.60;;;;;32.90;52.25;98454.03;5050530;28;8842;-71
2021/07/31 04:12:22;;;;;;;;;1.80;1.80;;;;;32.93;53.17;98445.75;5051198;28;8823;-71
2021/07/31 04:14:51;;;;;;;;;1.60;1.60;;;;;33.01;51.60;98449.88;5050092;28;8843;-71
2021/07/31 04:17:19;;;;;;;;;3.40;3.40;;;;;33.05;52.23;98436.13;5049974;28;8857;-70
2021/07/31 04:19:48;;;;;;;;;1.40;1.40;;;;;33.14;52.49;98443.75;5050958;28;8916;-70
2021/07/31 04:22:17;;;;;;;;;2.20;2.20;;;;;33.16;52.11;98435.88;5049819;28;8846;-71
2021/07/31 04:24:46;;;;;;;;;1.40;1.00;;;;;33.20;52.00;98434.59;5049606;28;8834;-70
2021/07/31 04:27:15;;;;;;;;;2.80;2.80;;;;;33.32;51.68;98441.41;5050227;28;8853;-70
2021/07/31 04:29:43;;;;;;;;;1.00;1.00;;;;;33.35;51.53;98443.28;5050810;28;8850;-70
2021/07/31 04:32:12;;;;;;;;;1.60;1.60;;;;;33.42;50.88;98436.88;5052968;28;9588;-70
2021/07/31 04:34:41;;;;;;;;;1.80;1.80;;;;;33.45;51.82;98447.72;5051548;28;8941;-69
2021/07/31 04:37:10;;;;;;;;;0.80;0.80;;;;;33.47;51.67;98439.88;5050515;28;8896;-70
2021/07/31 04:39:40;;;;;;;;;0.00;0.00;;;;;33.48;50.36;98444.13;5051860;28;9630;-70
2021/07/31 04:42:08;;;;;;;;;0.80;0.80;;;;;33.50;50.68;98430.03;5051438;28;8835;-70
2021/07/31 04:44:40;;;;;;;;;1.00;1.00;;;;;33.51;51.53;98437.81;5051657;28;8838;-70
2021/07/31 04:47:09;;;;;;;;;1.80;1.80;;;;;33.54;51.80;98433.44;5049347;28;8826;-70
2021/07/31 04:49:38;;;;;;;;;1.80;1.80;;;;;33.52;51.30;98412.00;5051357;28;8881;-72
2021/07/31 04:52:08;;;;;;;;;1.20;1.20;;;;;33.63;50.59;98423.44;5050105;28;8924;-72
2021/07/31 04:54:41;;;;;;;;;2.00;2.00;;;;;33.64;51.74;98410.53;5051743;28;9681;-73
2021/07/31 04:57:10;;;;;;;;;0.80;0.80;;;;;33.72;51.32;98418.13;5051872;28;8924;-70
2021/07/31 04:59:39;;;;;;;;;1.00;1.00;;;;;33.68;50.51;98400.28;5051702;28;8849;-71
2021/07/31 05:02:07;;;;;;;;;1.00;1.00;;;;;33.78;50.12;98406.66;5050988;28;8858;-71
2021/07/31 05:04:36;;;;;;;;;1.20;1.20;;;;;33.81;50.89;98403.84;5053016;28;8853;-73
2021/07/31 05:07:04;;;;;;;;;1.20;1.20;;;;;33.87;50.28;98402.13;5051912;28;8913;-71
2021/07/31 05:09:34;;;;;;;;;1.60;1.60;;;;;33.93;49.36;98402.38;5052503;28;8823;-70
2021/07/31 05:12:03;;;;;;;;;0.80;0.80;;;;;33.95;48.57;98395.25;5051792;28;8947;-72
2021/07/31 05:14:31;;;;;;;;;0.80;0.80;;;;;34.05;49.15;98390.69;5051152;28;8908;-72
2021/07/31 05:17:00;;;;;;;;;1.00;1.00;;;;;34.20;50.01;98391.84;5051824;28;8830;-72
2021/07/31 05:19:29;;;;;;;;;1.00;1.00;;;;;34.27;49.42;98382.66;5052199;28;8846;-72
2021/07/31 05:21:57;;;;;;;;;2.00;2.00;;;;;34.40;48.04;98382.72;5052873;28;8871;-72
2021/07/31 05:24:26;;;;;;;;;1.20;1.20;;;;;34.46;49.62;98375.50;5052771;28;8827;-72
2021/07/31 05:26:54;;;;;;;;;1.00;1.00;;;;;34.42;49.89;98369.38;5052891;28;8849;-72
2021/07/31 05:29:23;;;;;;;;;1.00;1.00;;;;;34.49;49.23;98371.91;5052434;28;8884;-72
2021/07/31 05:31:51;;;;;;;;;1.60;1.60;;;;;34.49;48.64;98367.19;5052441;28;8853;-71
2021/07/31 05:34:20;;;;;;;;;1.00;1.00;;;;;34.56;49.62;98374.41;5052527;28;9580;-71
2021/07/31 05:36:49;;;;;;;;;0.00;0.00;;;;;34.60;48.19;98370.38;5052491;28;8842;-71
2021/07/31 05:39:17;;;;;;;;;1.00;1.00;;;;;34.63;48.81;98371.47;5052479;28;8854;-71
2021/07/31 05:41:45;;;;;;;;;1.00;1.00;;;;;34.62;48.50;98367.19;5052155;28;8900;-72
2021/07/31 05:44:15;;;;;;;;;1.00;1.00;;;;;34.62;49.09;98367.97;5051735;28;9641;-69
2021/07/31 05:46:43;;;;;;;;;1.40;1.40;;;;;34.64;48.18;98365.56;5052052;28;8842;-71
2021/07/31 05:49:12;;;;;;;;;0.40;0.40;;;;;34.62;48.39;98362.47;5052232;28;8853;-71
2021/07/31 05:51:43;;;;;;;;;0.80;0.80;;;;;34.68;48.22;98362.72;5051084;28;8830;-70
2021/07/31 05:54:11;;;;;;;;;0.00;0.00;;;;;34.65;48.93;98356.13;5051751;28;8842;-71
2021/07/31 05:56:42;;;;;;;;;0.20;0.20;;;;;34.70;49.17;98356.78;5052158;28;8931;-70
2021/07/31 05:59:10;;;;;;;;;1.00;1.00;;;;;34.65;48.60;98344.41;5052377;28;9596;-71
2021/07/31 06:01:39;;;;;;;;;1.00;1.00;;;;;34.73;47.05;98351.19;5052517;28;8830;-70
2021/07/31 06:04:08;;;;;;;;;1.00;1.00;;;;;34.74;47.82;98352.75;5051559;28;8867;-72
2021/07/31 06:06:36;;;;;;;;;0.80;0.60;;;;;34.72;48.72;98338.72;5052174;28;8936;-70
2021/07/31 06:09:05;;;;;;;;;1.00;1.00;;;;;34.62;47.63;98324.13;5052098;28;8843;-71
2021/07/31 06:11:33;;;;;;;;;1.00;1.00;;;;;34.74;45.59;98339.03;5051907;28;8854;-70
2021/07/31 06:14:03;;;;;;;;;0.80;0.80;;;;;34.75;48.23;98335.09;5050509;28;8850;-71
2021/07/31 06:16:32;;;;;;;;;0.80;0.80;;;;;34.78;47.92;98330.72;5051217;28;8835;-70
2021/07/31 06:19:01;;;;;;;;;2.00;2.00;;;;;34.79;46.61;98338.50;5051774;28;8838;-70
2021/07/31 06:21:29;;;;;;;;;0.20;0.20;;;;;34.81;47.04;98335.34;5050798;28;8851;-71
2021/07/31 06:23:58;;;;;;;;;2.40;2.40;;;;;34.81;47.53;98335.34;5052133;28;8870;-70
2021/07/31 06:26:26;;;;;;;;;0.80;0.80;;;;;34.78;47.32;98331.47;5051849;28;8831;-75
2021/07/31 06:28:55;;;;;;;;;0.40;0.40;;;;;34.91;49.15;98334.25;5051752;28;9684;-72
2021/07/31 06:31:23;;;;;;;;;0.20;0.20;;;;;34.90;47.47;98324.47;5051668;28;8900;-71
2021/07/31 06:33:53;;;;;;;;;1.80;1.80;;;;;34.98;47.62;98323.81;5051709;28;9643;-71
2021/07/31 06:36:21;;;;;;;;;0.80;0.80;;;;;34.95;46.43;98323.94;5051660;28;8913;-71
2021/07/31 06:38:50;;;;;;;;;0.00;0.00;;;;;35.01;47.15;98335.88;5051692;28;8842;-71
2021/07/31 06:41:19;;;;;;;;;1.00;1.00;;;;;34.89;46.62;98298.28;5051638;28;8838;-71
2021/07/31 06:43:47;;;;;;;;;1.00;1.00;;;;;35.10;47.19;98324.25;5051765;28;8915;-71
2021/07/31 06:46:18;;;;;;;;;1.20;1.20;;;;;35.11;47.24;98312.03;5051980;28;9676;-71
2021/07/31 06:48:47;;;;;;;;;1.80;1.80;;;;;35.11;47.59;98306.56;5051531;28;8837;-71
2021/07/31 06:51:17;;;;;;;;;0.60;0.60;;;;;35.15;47.56;98310.72;5051667;28;8858;-71
2021/07/31 06:53:46;;;;;;;;;1.00;1.00;;;;;35.16;46.95;98303.25;5051627;28;8839;-71
2021/07/31 06:56:14;;;;;;;;;1.20;1.20;;;;;35.12;47.22;98284.19;5051595;28;8831;-71
2021/07/31 06:58:43;;;;;;;;;1.80;1.80;;;;;35.20;47.39;98290.94;5051639;28;8858;-71
2021/07/31 07:01:13;;;;;;;;;2.00;2.00;;;;;35.22;47.25;98280.31;5051552;28;8843;-71
2021/07/31 07:03:44;;;;;;;;;1.00;1.00;;;;;35.27;48.41;98281.72;5051795;28;8839;-71
2021/07/31 07:06:12;;;;;;;;;1.60;1.60;;;;;35.25;47.77;98262.97;5051739;28;8839;-71
2021/07/31 07:08:41;;;;;;;;;1.60;1.60;;;;;35.24;47.93;98255.19;5051769;28;8935;-71
2021/07/31 07:11:13;;;;;;;;;1.00;1.00;;;;;35.37;46.83;98269.66;5051362;28;8968;-71
2021/07/31 07:13:42;;;;;;;;;2.60;2.60;;;;;35.41;47.18;98256.56;5051452;28;8846;-71
2021/07/31 07:16:13;;;;;;;;;1.20;1.20;;;;;35.53;48.18;98252.25;5051618;28;8957;-71
2021/07/31 07:18:41;;;;;;;;;2.00;2.00;;;;;35.61;47.25;98243.31;5051438;28;8838;-71
2021/07/31 07:21:11;;;;;;;;;1.60;1.60;;;;;35.71;47.88;98243.38;5051645;28;8912;-71
2021/07/31 07:23:40;;;;;;;;;1.80;1.80;;;;;35.73;46.88;98235.47;5051435;28;8838;-71
2021/07/31 07:26:10;;;;;;;;;1.40;1.40;;;;;35.75;46.50;98235.78;5053502;28;9008;-71
2021/07/31 07:28:40;;;;;;;;;1.00;1.00;;;;;35.73;46.33;98224.50;5054878;28;8835;-71
2021/07/31 07:31:13;;;;;;;;;1.80;1.80;;;;;35.83;46.53;98221.38;5054881;28;8854;-71
2021/07/31 07:33:43;;;;;;;;;1.80;1.80;;;;;35.93;47.61;98224.94;5054818;28;8989;-71
2021/07/31 07:36:13;;;;;;;;;0.20;0.20;;;;;35.98;46.25;98231.81;5054787;28;8838;-71
2021/07/31 07:38:41;;;;;;;;;1.00;1.00;;;;;35.95;46.11;98208.78;5054657;28;8835;-71
2021/07/31 07:41:12;;;;;;;;;1.00;1.00;;;;;36.05;46.22;98215.84;5054595;28;9594;-71
2021/07/31 07:43:41;;;;;;;;;1.00;1.00;;;;;36.16;46.34;98216.19;5054621;28;8831;-71
2021/07/31 07:46:14;;;;;;;;;1.00;1.00;;;;;36.28;44.53;98213.84;5054879;28;8846;-72
2021/07/31 07:48:45;;;;;;;;;1.60;1.60;;;;;36.39;45.63;98211.44;5054435;28;8888;-71
2021/07/31 07:51:14;;;;;;;;;1.00;1.00;;;;;36.29;45.36;98176.91;5054432;28;8834;-71
2021/07/31 07:53:43;;;;;;;;;1.00;1.00;;;;;36.39;45.10;98192.19;5055146;28;8916;-71
2021/07/31 07:56:11;;;;;;;;;1.00;1.00;;;;;36.35;45.59;98194.31;5054402;28;8928;-71
2021/07/31 07:58:40;;;;;;;;;1.80;1.80;;;;;36.34;47.01;98192.78;5054399;28;8854;-71
2021/07/31 08:01:11;;;;;;;;;1.00;1.00;;;;;36.12;46.02;98168.88;5054384;28;8834;-71
2021/07/31 08:03:40;;;;;;;;;2.00;2.00;;;;;36.25;46.66;98183.28;5054303;28;9591;-71
2021/07/31 08:06:15;;;;;;;;;1.00;1.00;;;;;36.19;46.68;98176.09;5054271;28;8912;-72
2021/07/31 08:08:44;;;;;;;;;1.60;1.60;;;;;36.08;46.40;98168.25;5054343;28;8865;-71
2021/07/31 08:11:12;;;;;;;;;1.00;1.00;;;;;35.99;45.76;98162.75;5055024;28;8957;-71
2021/07/31 08:13:40;;;;;;;;;3.00;2.00;;;;;35.96;46.06;98169.13;5054456;28;8854;-72
2021/07/31 08:16:10;;;;;;;;;1.00;1.00;;;;;35.89;46.30;98164.69;5054425;28;8871;-71
2021/07/31 08:18:38;;;;;;;;;0.00;0.00;;;;;35.82;46.47;98166.94;5054320;28;8858;-71
2021/07/31 08:21:07;;;;;;;;;1.00;1.00;;;;;35.82;46.89;98180.66;5054007;28;8922;-72
2021/07/31 08:23:36;;;;;;;;;2.00;1.60;;;;;35.80;46.24;98174.84;5053903;28;8827;-71
2021/07/31 08:26:09;;;;;;;;;1.20;1.20;;;;;35.79;45.83;98187.00;5054142;28;8850;-71
2021/07/31 08:28:40;;;;;;;;;1.20;1.20;;;;;35.70;46.11;98167.75;5053863;28;8866;-71
2021/07/31 08:31:10;;;;;;;;;0.40;0.40;;;;;35.70;46.17;98176.00;5053713;28;8952;-71
2021/07/31 08:33:39;;;;;;;;;0.80;0.80;;;;;35.64;46.61;98171.09;5053789;28;8939;-71
2021/07/31 08:36:08;;;;;;;;;1.60;1.60;;;;;35.48;46.99;98157.56;5053582;28;8838;-71
2021/07/31 08:38:37;;;;;;;;;1.00;1.00;;;;;35.47;47.58;98171.75;5053775;28;8834;-71
2021/07/31 08:41:07;;;;;;;;;0.00;0.00;;;;;35.41;47.03;98176.28;5053576;28;8838;-71
2021/07/31 08:43:35;;;;;;;;;1.00;1.00;;;;;35.21;48.61;98212.19;5053505;28;8842;-71
2021/07/31 08:46:09;;;;;;;;;0.80;0.80;;;;;34.92;48.50;98229.66;5053600;28;8842;-71
2021/07/31 08:48:38;;;;;;;;;0.00;0.00;;;;;34.38;48.58;98207.13;5053273;28;8862;-71
2021/07/31 08:51:08;;;;;;;;;0.00;0.00;;;;;33.78;49.06;98226.09;5053368;28;8907;-71
2021/07/31 08:53:37;;;;;;;;;0.00;0.00;;;;;33.18;49.39;98232.00;5053655;28;8838;-71
2021/07/31 08:56:06;;;;;;;;;0.00;0.00;;;;;32.64;50.25;98215.38;5068721;28;8896;-71
2021/07/31 08:58:38;;;;;;;;;0.00;0.00;;;;;32.07;51.31;98238.50;5053278;28;8953;-71
2021/07/31 09:01:07;;;;;;;;;0.00;0.00;;;;;31.56;51.81;98204.47;5053283;28;8843;-71
2021/07/31 09:03:54;;;;;;;;;0.00;0.00;;;;;31.00;53.11;98226.13;5053259;28;8846;-71
2021/07/31 09:06:30;;;;;;;;;0.00;0.00;;;;;30.36;54.98;98211.56;5053080;28;8850;-71
2021/07/31 09:08:59;;;;;;;;;0.00;0.00;;;;;29.72;56.96;98220.56;5068308;28;8960;-71
2021/07/31 09:11:29;;;;;;;;;0.00;0.00;;;;;29.10;60.55;98215.38;5052897;28;8870;-71
2021/07/31 09:14:10;;;;;;;;;0.00;0.00;;;;;28.61;61.89;98192.13;5052939;28;8894;-71
2021/07/31 09:16:40;;;;;;;;;0.00;0.00;;;;;28.21;60.39;98162.56;5068074;28;9757;-71
2021/07/31 09:19:12;;;;;;;;;0.00;0.00;;;;;28.07;63.21;98168.09;5052918;28;8976;-71
2021/07/31 09:21:42;;;;;;;;;0.00;0.00;;;;;27.92;65.95;98155.78;5052829;28;8834;-71
2021/07/31 09:24:23;;;;;;;;;0.00;0.00;;;;;27.89;61.38;98143.78;5052778;28;8973;-70
2021/07/31 09:26:54;;;;;;;;;0.00;0.00;;;;;27.90;63.41;98141.84;5052733;28;8846;-70
2021/07/31 09:29:36;;;;;;;;;0.00;0.00;;;;;28.08;62.74;98149.88;5052769;28;8854;-71
2021/07/31 09:32:06;;;;;;;;;0.00;0.00;;;;;28.22;64.09;98163.38;5052572;28;8908;-71
2021/07/31 09:34:37;;;;;;;;;0.00;0.00;;;;;28.33;63.36;98174.91;5052613;28;8839;-70
2021/07/31 09:37:24;;;;;;;;;0.00;0.00;;;;;28.44;63.52;98185.69;5052805;28;8839;-70
2021/07/31 09:39:58;;;;;;;;;0.00;0.00;;;;;28.50;63.49;98182.16;5067683;28;8842;-70
2021/07/31 09:42:46;;;;;;;;;0.00;0.00;;;;;28.70;64.45;98178.88;5052440;28;8831;-71
2021/07/31 09:45:17;;;;;;;;;0.40;0.40;;;;;28.90;64.31;98185.31;5052426;28;8923;-70
2021/07/31 09:48:00;;;;;;;;;0.00;0.00;;;;;29.13;63.61;98176.56;5052216;28;8973;-70
2021/07/31 09:50:41;;;;;;;;;0.00;0.00;;;;;29.30;62.50;98178.31;5052356;28;8935;-70
2021/07/31 09:53:22;;;;;;;;;0.00;0.00;;;;;29.52;62.76;98182.38;5052164;28;8931;-70
2021/07/31 09:55:59;;;;;;;;;1.00;1.00;;;;;29.65;61.73;98174.44;5052300;28;8928;-71
2021/07/31 09:58:31;;;;;;;;;0.00;0.00;;;;;29.82;61.53;98172.69;5052234;28;8850;-71
2021/07/31 10:01:00;;;;;;;;;0.40;0.40;;;;;29.90;61.35;98165.19;5052949;28;8862;-71
2021/07/31 10:03:30;;;;;;;;;0.20;0.20;;;;;30.06;60.48;98181.69;5052085;28;8892;-71
2021/07/31 10:05:59;;;;;;;;;0.00;0.00;;;;;30.15;59.85;98173.78;5052121;28;8850;-71
2021/07/31 10:08:36;;;;;;;;;0.60;0.60;;;;;30.18;59.99;98172.97;5052073;28;8869;-71
2021/07/31 10:11:05;;;;;;;;;0.00;0.00;;;;;30.24;59.99;98159.66;5051888;28;8861;-71
2021/07/31 10:13:37;;;;;;;;;0.00;0.00;;;;;30.18;60.19;98135.63;5052095;28;8927;-71
2021/07/31 10:16:05;;;;;;;;;0.00;0.00;;;;;30.42;60.13;98158.22;5050927;28;8835;-71
2021/07/31 10:18:34;;;;;;;;;0.00;0.00;;;;;30.51;60.09;98160.41;5052065;28;8830;-71
2021/07/31 10:21:09;;;;;;;;;0.00;0.00;;;;;30.60;59.29;98168.06;5050812;28;8861;-71
2021/07/31 10:23:56;;;;;;;;;1.00;1.00;;;;;30.63;59.31;98169.97;5051991;28;8846;-71
2021/07/31 10:26:25;;;;;;;;;0.60;0.60;;;;;30.48;60.10;98153.06;5051876;28;8827;-71
2021/07/31 10:28:55;;;;;;;;;1.00;1.00;;;;;30.61;60.37;98180.50;5051907;28;8842;-71
2021/07/31 10:31:34;;;;;;;;;0.20;0.20;;;;;30.55;60.96;98154.91;5051818;28;8839;-71
2021/07/31 10:34:03;;;;;;;;;0.60;0.60;;;;;30.57;60.77;98158.75;5051879;28;8866;-71
2021/07/31 10:36:36;;;;;;;;;1.80;1.80;;;;;30.65;60.24;98156.72;5051784;28;8842;-71
2021/07/31 10:39:36;;;;;;;;;0.80;0.80;;;;;30.71;59.63;98157.78;5051793;28;8905;-71
2021/07/31 10:42:07;;;;;;;;;1.00;1.00;;;;;30.72;59.44;98151.91;5051708;28;8877;-71
2021/07/31 10:44:36;;;;;;;;;2.00;2.00;;;;;30.72;59.63;98143.75;5051747;28;8858;-71
2021/07/31 10:47:24;;;;;;;;;1.00;1.00;;;;;30.68;59.91;98142.25;5051466;28;8912;-71
2021/07/31 10:49:53;;;;;;;;;0.80;0.80;;;;;30.45;60.18;98107.63;5051870;28;8949;-71
2021/07/31 10:52:46;;;;;;;;;0.40;0.40;;;;;30.61;59.98;98128.78;5051955;28;8861;-71
2021/07/31 10:55:14;;;;;;;;;2.80;2.80;;;;;30.56;60.72;98123.78;5051901;28;8916;-70
2021/07/31 10:58:09;;;;;;;;;1.40;1.40;;;;;30.56;59.34;98127.25;5052008;28;8915;-71
2021/07/31 11:00:46;;;;;;;;;2.40;2.40;;;;;30.54;60.23;98123.41;5053019;28;8949;-71
2021/07/31 11:03:42;;;;;;;;;1.20;1.20;;;;;30.54;61.04;98120.69;5055474;28;8839;-71
2021/07/31 11:06:12;;;;;;;;;2.80;2.80;;;;;30.50;60.81;98120.75;5055401;28;8834;-71
2021/07/31 11:08:47;;;;;;;;;2.00;2.00;;;;;30.53;59.73;98119.94;5055371;28;8862;-71
2021/07/31 11:11:15;;;;;;;;;1.80;1.80;;;;;30.53;60.32;98119.94;5055184;28;9591;-71
2021/07/31 11:13:54;;;;;;;;;3.40;3.40;;;;;30.54;60.37;98120.69;5055936;28;8951;-71
2021/07/31 11:16:24;;;;;;;;;3.80;3.80;;;;;30.55;60.11;98125.72;5055196;28;8869;-71
2021/07/31 11:18:57;;;;;;;;;2.60;2.60;;;;;30.57;60.68;98130.75;5055375;28;8838;-71
2021/07/31 11:21:29;;;;;;;;;2.00;2.00;;;;;30.55;59.61;98130.41;5055085;28;8838;-71
2021/07/31 11:24:10;;;;;;;;;2.80;2.80;;;;;30.55;59.64;98124.97;5055003;28;8847;-71
2021/07/31 11:26:48;;;;;;;;;2.00;2.00;;;;;30.59;60.14;98139.31;5054984;28;8818;-71
2021/07/31 11:29:23;;;;;;;;;4.00;4.00;;;;;30.50;60.75;98143.31;5054971;28;8850;-71
2021/07/31 11:31:57;;;;;;;;;3.20;3.20;;;;;30.53;60.63;98141.72;5055100;28;8850;-71
2021/07/31 11:34:26;;;;;;;;;2.60;2.60;;;;;30.52;61.38;98146.38;5054926;28;8838;-71
2021/07/31 11:36:59;;;;;;;;;2.80;2.80;;;;;30.52;61.19;98149.09;5070104;28;8830;-71
2021/07/31 11:39:28;;;;;;;;;2.80;2.80;;;;;30.39;61.22;98129.09;5054817;28;8911;-71
2021/07/31 11:41:59;;;;;;;;;3.00;3.00;;;;;30.47;60.65;98137.91;5054724;28;8850;-71
2021/07/31 11:44:30;;;;;;;;;2.80;2.80;;;;;30.63;60.42;98161.78;5054664;28;8830;-71
2021/07/31 11:47:01;;;;;;;;;2.60;2.60;;;;;30.59;61.13;98147.47;5054930;28;8862;-71
2021/07/31 11:49:42;;;;;;;;;2.80;2.80;;;;;30.69;60.99;98165.59;5054573;28;8997;-71
2021/07/31 11:52:12;;;;;;;;;2.20;2.20;;;;;30.65;60.67;98162.91;5054434;28;8854;-71
2021/07/31 11:54:43;;;;;;;;;0.80;0.80;;;;;30.56;60.97;98162.66;5055414;28;8846;-71
2021/07/31 11:57:15;;;;;;;;;2.40;2.40;;;;;30.61;60.71;98177.78;5054413;28;8846;-70